Orto / Ocaso: 05:07 / 19:36 UTC (Datos para LEAX 12-07-2020)

[fuente: ADDS]

METAR:


LEMG 121230Z 12007KT 080V160 9999 FEW020 28/21 Q1016 NOSIG =
TAF LEMG 121100Z 1212/1312 13009KT 9999 FEW020 TX30/1213Z TN22/1305Z BECMG 1219/1221 VRB02KT PROB30 TEMPO 1222/1306 28006KT BECMG 1307/1309 15009KT LEGR 121230Z 16014KT 130V200 CAVOK 38/07 Q1016 =
TAF LEGR 120800Z 1209/1309 16014KT CAVOK TX37/1215Z TN21/1305Z PROB40 TEMPO 1209/1219 16016G26KT BECMG 1219/1222 VRB02KT LEZL 121230Z 33005KT CAVOK 35/13 Q1013 NOSIG =
TAF LEZL 120800Z 1209/1309 24008KT CAVOK TX38/1215Z TN23/1305Z LEAM 121230Z 08019KT 050V120 CAVOK 33/18 Q1015 =
TAF LEAM 120800Z 1209/1309 07016KT CAVOK TX36/1215Z TN24/1304Z TEMPO 1209/1220 07020G30KT BECMG 1221/1223 06006KT PROB40 TEMPO 1301/1306 34010KT BECMG 1307/1309 08018KT LEBA 121230Z 19004KT CAVOK 35/15 Q1014 =
TAF LEBA 121100Z 1212/1221 22008KT CAVOK LEJR 121230Z VRB05KT CAVOK 35/16 Q1013 =
TAF LEJR 121100Z 1212/1312 20008KT CAVOK TX38/1215Z TN20/1305Z PROB40 TEMPO 1216/1220 27010KT GEML 121230Z 02006KT 330V070 9999 FEW004 SCT010 27/22 Q1015 =
TAF GEML 120800Z 1209/1309 09009KT 9999 FEW015 TX28/1214Z TN23/1305Z PROB40 TEMPO 1210/1213 13016G30KT TEMPO 1220/1309 BKN010 LXGB 121220Z 09012KT 9999 FEW022 BKN035 26/20 Q1016 NOSIG RMK BLU BLU =
TAF LXGB 121031Z 1212/1221 09014KT 9999 FEW020 SCT040 TEMPO 1212/1221 BKN020 PROB30 TEMPO 1212/1214 09015G25KT

TAFOR:


TAF LEMG 121100Z 1212/1312 13009KT 9999 FEW020 TX30/1213Z TN22/1305Z BECMG 1219/1221 VRB02KT PROB30 TEMPO 1222/1306 28006KT BECMG 1307/1309 15009KT =
TAF LEGR 120800Z 1209/1309 16014KT CAVOK TX37/1215Z TN21/1305Z PROB40 TEMPO 1209/1219 16016G26KT BECMG 1219/1222 VRB02KT =
TAF LEZL 120800Z 1209/1309 24008KT CAVOK TX38/1215Z TN23/1305Z =
TAF LEAM 120800Z 1209/1309 07016KT CAVOK TX36/1215Z TN24/1304Z TEMPO 1209/1220 07020G30KT BECMG 1221/1223 06006KT PROB40 TEMPO 1301/1306 34010KT BECMG 1307/1309 08018KT =
TAF LEBA 121100Z 1212/1221 22008KT CAVOK =
TAF LEJR 121100Z 1212/1312 20008KT CAVOK TX38/1215Z TN20/1305Z PROB40 TEMPO 1216/1220 27010KT =
TAF GEML 120800Z 1209/1309 09009KT 9999 FEW015 TX28/1214Z TN23/1305Z PROB40 TEMPO 1210/1213 13016G30KT TEMPO 1220/1309 BKN010 =
TAF LXGB 121031Z 1212/1221 09014KT 9999 FEW020 SCT040 TEMPO 1212/1221 BKN020 PROB30 TEMPO 1212/1214 09015G25KT =

Recuerde que, aunque regularmente actualizada, la información meteorológica aquí presentada no debe ser utilizada para la planificación de vuelos. Si lo desea, puede consultar la información meteorológica adecuada, tanto de aeródromos como en ruta, por las vías oficialmente establecidas en la legislación -> AQUí

Utilizamos "cookies" propias y de terceros para analizar nuestros servicios, medir las audiencias, personalizar el contenido que ofrecemos y mostrar información adaptada a sus intereses mediante la obtención de los datos necesarios para perfilar sus hábitos de navegación e inferir grupos de interés, siempre de modo anónimo. Si continúa utilizando el sitio web AEROCLUBMALAGA.COM, significa que acepta sus términos y condiciones y el uso de "cookies" al utilizar el sitio web y nuestros servicios. Asimismo, podemos utilizar fuentes de datos externas para elaborar estos grupos de interés, así compartir los análisis de navegación y los grupos de interés inferidos con terceros con el objetivo de personalizar los contenidos. Para obtener más información sobre las cookies que utilizamos y cómo eliminarlas, consulte nuestra política de privacidad.

Acepto las cookies de esta página web.
EU Cookie Directive plugin by www.channeldigital.co.uk